Time;durP1;ratioP1;P1;durP2;ratioP2;P2;SDS_P1;SDS_P2;PMS_P1;PMS_P2;Temp;Humidity;BMP_temperature;BMP_pressure;BME280_temperature;BME280_humidity;BME280_pressure;Samples;Min_cycle;Max_cycle;Signal;HPM_P1;HPM_P2
2022/03/01 00:01:53;;;;;;;24.90;12.60;;;6.20;99.90;;;;;;4960121;28;20715;-78
2022/03/01 00:04:22;;;;;;;26.67;12.13;;;6.20;99.90;;;;;;4975806;28;20657;-77
2022/03/01 00:06:47;;;;;;;26.10;12.23;;;6.20;99.90;;;;;;4959732;28;20205;-78
2022/03/01 00:09:13;;;;;;;21.80;12.50;;;6.20;99.90;;;;;;4944906;28;20349;-78
2022/03/01 00:11:39;;;;;;;23.27;11.83;;;6.20;99.90;;;;;;4942739;28;20196;-79
2022/03/01 00:14:06;;;;;;;29.17;13.13;;;6.20;99.90;;;;;;4944468;28;20308;-78
2022/03/01 00:16:32;;;;;;;23.67;12.73;;;6.20;99.90;;;;;;4960905;28;20192;-78
2022/03/01 00:18:58;;;;;;;27.23;13.10;;;6.30;99.90;;;;;;4973592;28;20201;-78
2022/03/01 00:21:25;;;;;;;23.20;12.07;;;6.30;99.90;;;;;;4978034;28;20185;-78
2022/03/01 00:23:51;;;;;;;24.33;11.90;;;6.30;99.90;;;;;;4936111;28;20662;-78
2022/03/01 00:26:17;;;;;;;25.20;13.93;;;6.30;99.90;;;;;;4943932;28;20212;-78
2022/03/01 00:28:43;;;;;;;25.87;13.50;;;6.30;99.90;;;;;;4961904;28;20196;-78
2022/03/01 00:31:09;;;;;;;29.50;13.37;;;6.30;99.90;;;;;;4960748;28;20188;-79
2022/03/01 00:33:35;;;;;;;27.20;13.00;;;6.30;99.90;;;;;;4959054;28;20219;-80
2022/03/01 00:36:01;;;;;;;25.10;12.90;;;6.30;99.90;;;;;;4960036;28;20271;-80
2022/03/01 00:38:27;;;;;;;27.40;14.10;;;6.40;99.90;;;;;;4958254;28;20172;-78
2022/03/01 00:40:53;;;;;;;24.07;13.00;;;6.40;99.90;;;;;;4959643;28;20232;-78
2022/03/01 00:43:18;;;;;;;25.43;12.97;;;6.30;99.90;;;;;;4960674;28;20244;-78
2022/03/01 00:45:44;;;;;;;25.10;11.80;;;6.20;99.90;;;;;;4959325;28;20208;-77
2022/03/01 00:48:10;;;;;;;22.40;12.33;;;6.30;99.90;;;;;;4977789;28;20188;-78
2022/03/01 00:50:37;;;;;;;25.07;13.00;;;6.30;99.90;;;;;;4946397;28;20199;-79
2022/03/01 00:53:02;;;;;;;26.53;12.13;;;6.20;99.90;;;;;;4948572;28;20244;-78
2022/03/01 00:55:29;;;;;;;24.27;11.87;;;6.30;99.90;;;;;;4931437;28;20192;-78
2022/03/01 00:57:54;;;;;;;26.53;12.63;;;6.30;99.90;;;;;;4962737;28;20231;-77
2022/03/01 01:00:20;;;;;;;25.47;11.93;;;6.30;99.90;;;;;;4947264;28;20643;-76
2022/03/01 01:02:46;;;;;;;24.23;13.23;;;6.30;99.90;;;;;;4981314;28;20211;-79
2022/03/01 01:05:11;;;;;;;23.10;12.13;;;6.30;99.90;;;;;;4964313;28;20774;-78
2022/03/01 01:07:37;;;;;;;25.67;13.50;;;6.40;99.90;;;;;;4947390;28;20204;-78
2022/03/01 01:10:04;;;;;;;23.90;12.60;;;6.40;99.90;;;;;;4962396;28;20571;-78
2022/03/01 01:12:30;;;;;;;27.30;13.53;;;6.40;99.90;;;;;;4978280;28;20291;-78
2022/03/01 01:14:55;;;;;;;27.40;13.23;;;6.40;99.90;;;;;;4962658;28;20648;-78
2022/03/01 01:17:21;;;;;;;27.30;12.50;;;6.40;99.90;;;;;;4947331;28;20188;-79
2022/03/01 01:19:47;;;;;;;26.70;13.30;;;6.40;99.90;;;;;;4947018;28;20558;-77
2022/03/01 01:24:57;;;;;;;23.00;12.73;;;6.40;99.90;;;;;;4965892;28;20784;-78
2022/03/01 01:27:23;;;;;;;25.67;13.57;;;6.40;99.90;;;;;;4962808;28;20196;-77
2022/03/01 01:29:48;;;;;;;21.07;12.00;;;6.40;99.90;;;;;;4946220;28;20290;-79
2022/03/01 01:32:14;;;;;;;30.63;13.67;;;6.40;99.90;;;;;;4963643;28;20189;-78
2022/03/01 01:34:39;;;;;;;24.17;12.00;;;6.40;99.90;;;;;;4930980;28;20627;-79
2022/03/01 01:37:05;;;;;;;25.00;12.80;;;6.50;99.90;;;;;;4964271;28;20284;-77
2022/03/01 01:39:31;;;;;;;23.63;12.67;;;6.40;99.90;;;;;;4963606;28;20203;-77
2022/03/01 01:41:56;;;;;;;25.90;13.30;;;6.50;99.90;;;;;;4946403;28;20204;-79
2022/03/01 01:44:22;;;;;;;32.57;12.87;;;6.50;99.90;;;;;;4961299;28;20244;-78
2022/03/01 01:46:48;;;;;;;23.83;12.07;;;6.50;99.90;;;;;;4945666;28;20373;-77
2022/03/01 01:49:13;;;;;;;24.20;12.17;;;6.50;99.90;;;;;;4947462;28;20192;-78
2022/03/01 01:51:40;;;;;;;27.33;12.07;;;6.50;99.90;;;;;;4945842;28;20193;-78
2022/03/01 01:54:06;;;;;;;29.30;13.50;;;6.50;99.90;;;;;;4945659;28;20213;-77
2022/03/01 01:56:32;;;;;;;27.80;13.23;;;6.50;99.90;;;;;;4961979;28;20238;-77
2022/03/01 01:58:58;;;;;;;23.70;12.83;;;6.50;99.90;;;;;;4930761;28;20291;-77
2022/03/01 02:01:24;;;;;;;24.53;12.13;;;6.50;99.90;;;;;;4963001;28;20315;-80
2022/03/01 02:03:49;;;;;;;24.83;12.07;;;6.50;99.90;;;;;;4951582;28;20212;-79
2022/03/01 02:06:15;;;;;;;26.17;12.50;;;6.50;99.90;;;;;;4947219;28;20200;-80
2022/03/01 02:08:41;;;;;;;22.63;12.27;;;6.50;99.90;;;;;;4962997;28;20279;-78
2022/03/01 02:11:08;;;;;;;26.53;12.23;;;6.50;99.90;;;;;;4945356;28;20268;-79
2022/03/01 02:13:34;;;;;;;23.50;13.00;;;6.50;99.90;;;;;;4947158;28;20557;-79
2022/03/01 02:16:00;;;;;;;24.60;12.60;;;6.50;99.90;;;;;;4980459;28;20260;-79
2022/03/01 02:18:26;;;;;;;26.27;13.07;;;6.50;99.90;;;;;;4948624;28;20280;-79
2022/03/01 02:20:51;;;;;;;28.37;12.70;;;6.50;99.90;;;;;;4945680;28;20292;-78
2022/03/01 02:23:17;;;;;;;23.60;12.27;;;6.40;99.90;;;;;;4947977;28;20636;-78
2022/03/01 02:25:43;;;;;;;30.93;13.70;;;6.40;99.90;;;;;;4962319;28;20247;-79
2022/03/01 02:28:09;;;;;;;27.97;14.20;;;6.30;99.90;;;;;;4962307;28;20214;-78
2022/03/01 02:30:34;;;;;;;27.03;12.97;;;6.30;99.90;;;;;;4946358;28;20204;-78
2022/03/01 02:33:00;;;;;;;25.90;13.33;;;6.20;99.90;;;;;;4945535;28;20290;-77
2022/03/01 02:35:26;;;;;;;27.97;14.00;;;6.10;99.90;;;;;;4951748;28;20601;-78
2022/03/01 02:37:52;;;;;;;25.27;13.60;;;6.00;99.90;;;;;;4963589;28;20614;-79
2022/03/01 02:40:19;;;;;;;23.87;13.57;;;5.90;99.90;;;;;;4963224;28;20539;-79
2022/03/01 02:42:47;;;;;;;29.67;14.27;;;5.80;99.90;;;;;;4969295;28;20215;-78
2022/03/01 02:45:16;;;;;;;27.40;13.83;;;5.80;99.90;;;;;;4961171;28;20201;-78
2022/03/01 02:47:43;;;;;;;33.07;15.33;;;5.80;99.90;;;;;;4962145;28;20216;-77
2022/03/01 02:50:10;;;;;;;29.80;13.90;;;5.70;99.90;;;;;;4939843;28;20282;-79
2022/03/01 02:52:36;;;;;;;30.83;14.60;;;5.70;99.90;;;;;;4946395;28;20651;-79
2022/03/01 02:55:03;;;;;;;26.93;14.87;;;5.60;99.90;;;;;;4934715;28;20198;-78
2022/03/01 02:57:29;;;;;;;25.90;14.87;;;5.60;99.90;;;;;;4962052;28;20184;-78
2022/03/01 02:59:55;;;;;;;26.63;15.03;;;5.60;99.90;;;;;;4960696;28;20193;-79
2022/03/01 03:02:21;;;;;;;27.03;14.67;;;5.50;99.90;;;;;;4963409;28;20299;-78
2022/03/01 03:04:46;;;;;;;25.00;14.40;;;5.50;99.90;;;;;;4945020;28;20221;-79
2022/03/01 03:07:14;;;;;;;30.47;14.87;;;5.50;99.90;;;;;;4960641;28;20196;-80
2022/03/01 03:09:39;;;;;;;29.57;14.77;;;5.50;99.90;;;;;;4952575;28;20322;-79
2022/03/01 03:12:06;;;;;;;30.13;15.47;;;5.40;99.90;;;;;;4932393;28;20269;-78
2022/03/01 03:14:32;;;;;;;28.97;14.67;;;5.40;99.90;;;;;;4961387;28;20284;-79
2022/03/01 03:16:58;;;;;;;27.73;14.70;;;5.40;99.90;;;;;;4944358;28;20279;-79
2022/03/01 03:19:24;;;;;;;26.90;13.87;;;5.30;99.90;;;;;;4963090;28;20220;-79
2022/03/01 03:21:50;;;;;;;30.23;15.47;;;5.40;99.90;;;;;;4977258;28;20188;-78
2022/03/01 03:24:16;;;;;;;27.23;15.33;;;5.40;99.90;;;;;;4962398;28;20334;-79
2022/03/01 03:26:42;;;;;;;30.43;15.10;;;5.40;99.90;;;;;;4946104;28;20364;-79
2022/03/01 03:29:08;;;;;;;30.73;14.83;;;5.30;99.90;;;;;;4960770;28;20311;-78
2022/03/01 03:31:40;;;;;;;28.03;14.50;;;5.30;99.90;;;;;;4960617;28;20264;-79
2022/03/01 03:34:10;;;;;;;27.57;14.50;;;5.40;99.90;;;;;;4979780;28;20201;-79
2022/03/01 03:36:39;;;;;;;29.33;14.97;;;5.40;99.90;;;;;;4960551;28;20287;-78
2022/03/01 03:39:07;;;;;;;27.80;14.50;;;5.40;99.90;;;;;;4979009;28;20223;-79
2022/03/01 03:41:34;;;;;;;29.10;15.23;;;5.40;99.90;;;;;;4976326;28;20277;-78
2022/03/01 03:44:00;;;;;;;27.63;13.93;;;5.50;99.90;;;;;;4958554;28;20712;-79
2022/03/01 03:46:26;;;;;;;26.73;14.30;;;5.50;99.90;;;;;;4944825;28;20192;-78
2022/03/01 03:48:52;;;;;;;29.43;13.70;;;5.50;99.90;;;;;;4962523;28;20682;-79
2022/03/01 03:51:19;;;;;;;26.97;14.27;;;5.50;99.90;;;;;;4988573;28;20198;-78
2022/03/01 03:53:45;;;;;;;26.07;13.00;;;5.50;99.90;;;;;;4938246;28;20208;-77
2022/03/01 03:56:10;;;;;;;27.00;13.93;;;5.50;99.90;;;;;;4953327;28;20189;-79
2022/03/01 03:58:36;;;;;;;23.90;12.87;;;5.60;99.90;;;;;;4933813;28;20204;-78
2022/03/01 04:01:02;;;;;;;29.70;14.60;;;5.60;99.90;;;;;;4944949;28;20937;-78
2022/03/01 04:03:27;;;;;;;23.90;12.83;;;5.50;99.90;;;;;;4978091;28;20200;-78
2022/03/01 04:05:53;;;;;;;23.37;13.57;;;5.50;99.90;;;;;;4976673;28;20221;-77
2022/03/01 04:08:19;;;;;;;25.07;13.97;;;5.50;99.90;;;;;;4959532;28;21074;-77
2022/03/01 04:10:44;;;;;;;28.03;13.50;;;5.60;99.90;;;;;;4933803;28;20206;-79
2022/03/01 04:13:11;;;;;;;25.00;12.57;;;5.60;99.90;;;;;;4958746;28;20212;-78
2022/03/01 04:15:37;;;;;;;26.43;13.00;;;5.70;99.90;;;;;;4978180;28;20188;-78
2022/03/01 04:18:04;;;;;;;28.03;14.03;;;5.70;99.90;;;;;;4944654;28;20216;-77
2022/03/01 04:20:31;;;;;;;28.47;12.63;;;5.70;99.90;;;;;;4962004;28;20180;-77
2022/03/01 04:22:56;;;;;;;25.50;12.83;;;5.70;99.90;;;;;;4976914;28;20207;-79
2022/03/01 04:25:22;;;;;;;26.23;13.57;;;5.70;99.90;;;;;;4944919;28;20244;-78
2022/03/01 04:27:48;;;;;;;23.27;12.77;;;5.70;99.90;;;;;;4948763;28;20563;-78
2022/03/01 04:30:15;;;;;;;24.03;12.90;;;5.70;99.90;;;;;;4932471;28;20192;-78
2022/03/01 04:32:42;;;;;;;24.60;12.80;;;5.70;99.90;;;;;;4948984;28;20297;-78
2022/03/01 04:35:09;;;;;;;24.60;12.27;;;5.70;99.90;;;;;;4949244;28;20224;-78
2022/03/01 04:37:37;;;;;;;23.07;12.77;;;5.70;99.90;;;;;;4962364;28;20200;-78
2022/03/01 04:40:05;;;;;;;22.73;11.73;;;5.80;99.90;;;;;;4978571;28;20188;-79
2022/03/01 04:42:31;;;;;;;24.17;12.10;;;5.80;99.90;;;;;;4964238;28;20180;-77
2022/03/01 04:44:58;;;;;;;25.30;12.30;;;5.80;99.90;;;;;;4948040;28;20212;-79
2022/03/01 04:47:23;;;;;;;23.57;12.33;;;5.90;99.90;;;;;;4947383;28;20192;-79
2022/03/01 04:49:49;;;;;;;21.87;11.63;;;5.80;99.90;;;;;;4963606;28;20200;-79
2022/03/01 04:52:15;;;;;;;23.00;11.90;;;5.80;99.90;;;;;;4955564;28;20192;-78
2022/03/01 04:54:40;;;;;;;22.07;11.70;;;5.80;99.90;;;;;;4963650;28;20197;-79
2022/03/01 04:57:06;;;;;;;27.07;12.60;;;5.90;99.90;;;;;;4979597;28;20309;-79
2022/03/01 04:59:32;;;;;;;26.33;12.27;;;5.80;99.90;;;;;;4962148;28;20244;-77
2022/03/01 05:01:57;;;;;;;27.27;13.17;;;5.80;99.90;;;;;;4980666;28;20569;-77
2022/03/01 05:04:23;;;;;;;23.83;12.57;;;5.90;99.90;;;;;;4947337;28;20231;-77
2022/03/01 05:06:49;;;;;;;22.80;12.07;;;5.90;99.90;;;;;;4947541;28;20209;-77
2022/03/01 05:09:15;;;;;;;21.83;12.30;;;5.90;99.90;;;;;;4963532;28;20492;-78
2022/03/01 05:11:41;;;;;;;25.20;12.10;;;5.90;99.90;;;;;;4948015;28;20246;-78
2022/03/01 05:14:07;;;;;;;18.57;10.67;;;5.90;99.90;;;;;;4962727;28;20271;-77
2022/03/01 05:16:32;;;;;;;22.87;11.70;;;5.90;99.90;;;;;;4979057;28;20193;-78
2022/03/01 05:18:58;;;;;;;27.53;11.57;;;5.90;99.90;;;;;;4979413;28;20216;-77
2022/03/01 05:21:24;;;;;;;27.43;12.40;;;5.90;99.90;;;;;;4948167;28;20189;-77
2022/03/01 05:23:49;;;;;;;24.80;13.23;;;5.90;99.90;;;;;;4962855;28;21045;-79
2022/03/01 05:26:15;;;;;;;23.50;12.70;;;5.90;99.90;;;;;;4930956;28;20199;-78
2022/03/01 05:28:41;;;;;;;22.90;12.50;;;5.90;99.90;;;;;;4946696;28;20212;-78
2022/03/01 05:31:07;;;;;;;22.93;11.73;;;5.90;99.90;;;;;;4963284;28;20204;-78
2022/03/01 05:33:33;;;;;;;23.07;11.73;;;5.90;99.90;;;;;;4946411;28;20760;-77
2022/03/01 05:35:59;;;;;;;21.57;12.33;;;5.90;99.90;;;;;;4932485;28;20261;-79
2022/03/01 05:38:25;;;;;;;24.57;11.73;;;5.90;99.90;;;;;;4946883;28;20185;-78
2022/03/01 05:40:52;;;;;;;22.90;12.63;;;6.00;99.90;;;;;;4981781;28;20196;-77
2022/03/01 05:43:17;;;;;;;19.93;11.37;;;6.00;99.90;;;;;;4945882;28;20219;-77
2022/03/01 05:45:43;;;;;;;22.67;11.97;;;6.00;99.90;;;;;;4947934;28;20204;-78
2022/03/01 05:48:09;;;;;;;26.27;12.90;;;6.00;99.90;;;;;;4963500;28;20228;-77
2022/03/01 05:50:35;;;;;;;20.63;11.57;;;6.00;99.90;;;;;;4946377;28;20196;-78
2022/03/01 05:53:00;;;;;;;21.13;11.40;;;6.00;99.90;;;;;;4948243;28;20211;-78
2022/03/01 05:55:26;;;;;;;27.07;12.90;;;6.00;99.90;;;;;;4981692;28;20207;-79
2022/03/01 05:57:52;;;;;;;19.77;11.80;;;6.00;99.90;;;;;;4946401;28;20259;-77
2022/03/01 06:00:19;;;;;;;24.60;11.87;;;6.00;99.90;;;;;;4932445;28;20223;-77
2022/03/01 06:02:47;;;;;;;21.73;11.70;;;6.00;99.90;;;;;;4961398;28;20196;-78
2022/03/01 06:05:15;;;;;;;22.87;12.33;;;6.10;99.90;;;;;;4963182;28;20193;-79
2022/03/01 06:07:40;;;;;;;24.73;11.93;;;6.10;99.90;;;;;;4963506;28;20189;-79
2022/03/01 06:10:07;;;;;;;20.40;11.07;;;6.10;99.90;;;;;;4947145;28;20200;-77
2022/03/01 06:12:33;;;;;;;20.93;10.90;;;6.10;99.90;;;;;;4945125;28;20240;-77
2022/03/01 06:14:59;;;;;;;21.80;11.63;;;6.20;99.90;;;;;;4962898;28;20654;-77
2022/03/01 06:17:24;;;;;;;21.70;11.77;;;6.20;99.90;;;;;;4960308;28;20211;-78
2022/03/01 06:19:50;;;;;;;22.13;11.33;;;6.30;99.90;;;;;;4982163;28;20662;-78
2022/03/01 06:22:16;;;;;;;24.40;11.70;;;6.20;99.90;;;;;;4961527;28;20209;-79
2022/03/01 06:24:43;;;;;;;20.47;11.77;;;6.20;99.90;;;;;;4969384;28;20314;-79
2022/03/01 06:27:09;;;;;;;25.97;11.77;;;6.20;99.90;;;;;;4961600;28;20848;-78
2022/03/01 06:29:36;;;;;;;22.70;11.87;;;6.30;99.90;;;;;;4979384;28;20213;-80
2022/03/01 06:32:03;;;;;;;27.93;12.43;;;6.30;99.90;;;;;;4962130;28;20188;-78
2022/03/01 06:34:28;;;;;;;24.57;11.97;;;6.20;99.90;;;;;;4947321;28;20398;-78
2022/03/01 06:36:54;;;;;;;22.53;10.77;;;6.20;99.90;;;;;;4963683;28;20202;-78
2022/03/01 06:39:20;;;;;;;23.70;11.47;;;6.20;99.90;;;;;;4962149;28;20243;-79
2022/03/01 06:41:45;;;;;;;21.80;11.57;;;6.10;99.90;;;;;;4963924;28;20601;-78
2022/03/01 06:44:11;;;;;;;24.83;11.20;;;6.10;99.90;;;;;;4946159;28;20275;-79
2022/03/01 06:46:37;;;;;;;22.70;11.83;;;6.10;99.90;;;;;;4963882;28;20679;-77
2022/03/01 06:49:03;;;;;;;24.10;11.30;;;6.10;99.90;;;;;;4946138;28;21038;-78
2022/03/01 06:51:29;;;;;;;23.67;11.57;;;6.10;99.90;;;;;;4961491;28;20200;-79
2022/03/01 06:53:55;;;;;;;22.77;10.40;;;6.10;99.90;;;;;;4978914;28;20962;-79
2022/03/01 06:56:21;;;;;;;23.37;10.93;;;6.10;99.90;;;;;;4946906;28;20372;-78
2022/03/01 06:58:47;;;;;;;24.67;11.27;;;6.10;99.90;;;;;;4962237;28;20214;-79
2022/03/01 07:01:13;;;;;;;21.10;11.07;;;6.20;99.90;;;;;;4975573;28;20223;-79
2022/03/01 07:03:39;;;;;;;20.87;11.00;;;6.20;99.90;;;;;;4930348;28;20195;-78
2022/03/01 07:06:05;;;;;;;19.53;10.90;;;6.30;99.90;;;;;;4946549;28;20209;-78
2022/03/01 07:08:31;;;;;;;23.70;11.57;;;6.20;99.90;;;;;;4945831;28;22048;-79
2022/03/01 07:10:58;;;;;;;23.63;10.83;;;6.30;99.90;;;;;;4930227;28;20192;-77
2022/03/01 07:13:24;;;;;;;22.20;11.00;;;6.30;99.90;;;;;;4978319;28;20787;-79
2022/03/01 07:15:49;;;;;;;22.77;11.30;;;6.30;99.90;;;;;;4963034;28;20689;-79
2022/03/01 07:18:15;;;;;;;24.13;11.50;;;6.30;99.90;;;;;;4943765;28;20243;-79
2022/03/01 07:20:43;;;;;;;22.77;11.33;;;6.30;99.90;;;;;;4947231;28;20192;-79
2022/03/01 07:23:10;;;;;;;22.47;11.07;;;6.30;99.90;;;;;;4946367;28;20571;-78
2022/03/01 07:25:36;;;;;;;20.63;10.70;;;6.30;99.90;;;;;;4977789;28;20232;-77
2022/03/01 07:28:03;;;;;;;24.97;11.23;;;6.30;99.90;;;;;;4967670;28;20990;-79
2022/03/01 07:30:29;;;;;;;21.73;11.50;;;6.30;99.90;;;;;;4976250;28;20239;-79
2022/03/01 07:33:01;;;;;;;20.50;10.37;;;6.30;99.90;;;;;;4944571;28;20204;-79
2022/03/01 07:35:27;;;;;;;23.73;12.03;;;6.40;99.90;;;;;;4960040;28;20219;-78
2022/03/01 07:37:54;;;;;;;21.93;11.10;;;6.40;99.90;;;;;;4941916;28;20207;-77
2022/03/01 07:40:24;;;;;;;23.73;11.20;;;6.40;99.90;;;;;;4960175;28;20599;-79
2022/03/01 07:42:50;;;;;;;21.37;11.47;;;6.50;99.90;;;;;;4946159;28;20213;-79
2022/03/01 07:45:17;;;;;;;18.33;11.10;;;6.50;99.90;;;;;;4943904;28;20214;-77
2022/03/01 07:47:43;;;;;;;26.00;12.13;;;6.60;99.90;;;;;;4962575;28;20279;-78
2022/03/01 07:50:10;;;;;;;25.87;11.43;;;6.60;99.90;;;;;;4952688;28;20203;-78
2022/03/01 07:52:36;;;;;;;20.33;10.93;;;6.60;99.90;;;;;;4963328;28;20192;-79
2022/03/01 07:55:04;;;;;;;20.87;10.73;;;6.70;99.90;;;;;;4932096;28;20208;-80
2022/03/01 07:57:29;;;;;;;25.37;12.63;;;6.80;99.90;;;;;;4960979;28;20196;-77
2022/03/01 07:59:55;;;;;;;20.03;11.37;;;6.70;99.90;;;;;;4943716;28;20586;-79
2022/03/01 08:02:21;;;;;;;23.33;11.50;;;6.80;99.90;;;;;;4962459;28;20683;-80
2022/03/01 08:04:46;;;;;;;19.87;10.93;;;6.80;99.90;;;;;;4963319;28;20196;-79
2022/03/01 08:07:12;;;;;;;24.03;11.50;;;6.70;99.90;;;;;;4944846;28;20201;-79
2022/03/01 08:09:44;;;;;;;22.63;10.53;;;6.70;99.90;;;;;;4966337;28;20184;-79
2022/03/01 08:12:10;;;;;;;25.90;11.50;;;6.70;99.90;;;;;;4975077;28;20188;-78
2022/03/01 08:14:36;;;;;;;26.50;11.43;;;6.70;99.90;;;;;;4951875;28;20221;-79
2022/03/01 08:17:03;;;;;;;22.50;11.43;;;6.70;99.90;;;;;;4945834;28;20203;-78
2022/03/01 08:19:29;;;;;;;25.63;11.60;;;6.70;99.90;;;;;;4978168;28;20192;-79
2022/03/01 08:21:55;;;;;;;20.97;10.97;;;6.70;99.90;;;;;;4962372;28;20236;-79
2022/03/01 08:24:21;;;;;;;27.00;11.67;;;6.70;99.90;;;;;;4943792;28;20613;-78
2022/03/01 08:26:48;;;;;;;22.23;11.37;;;6.80;99.90;;;;;;4959739;28;20629;-79
2022/03/01 08:29:14;;;;;;;20.63;10.80;;;6.80;99.90;;;;;;4958818;28;20665;-78
2022/03/01 08:31:41;;;;;;;19.57;11.60;;;6.70;99.90;;;;;;4931087;28;20193;-78
2022/03/01 08:34:11;;;;;;;21.57;11.07;;;6.80;99.90;;;;;;4960602;28;20414;-79
2022/03/01 08:36:40;;;;;;;22.17;10.80;;;6.80;99.90;;;;;;4978222;28;20184;-79
2022/03/01 08:39:05;;;;;;;21.70;11.13;;;6.90;99.90;;;;;;4960746;28;20184;-79
2022/03/01 08:41:31;;;;;;;21.17;11.43;;;6.90;99.90;;;;;;4944278;28;20196;-78
2022/03/01 08:43:57;;;;;;;18.83;10.80;;;6.90;99.90;;;;;;4959905;28;20208;-78
2022/03/01 08:46:26;;;;;;;20.63;11.47;;;7.00;99.90;;;;;;4959940;28;20255;-77
2022/03/01 08:48:53;;;;;;;23.27;11.10;;;7.00;99.90;;;;;;4960326;28;20200;-79
2022/03/01 08:51:23;;;;;;;19.30;10.73;;;7.00;99.90;;;;;;4962004;28;20207;-77
2022/03/01 08:53:50;;;;;;;20.80;11.40;;;7.00;99.90;;;;;;4963872;28;20215;-78
2022/03/01 08:56:16;;;;;;;21.30;11.53;;;7.00;99.90;;;;;;4944769;28;20189;-77
2022/03/01 08:58:43;;;;;;;23.40;11.37;;;7.00;99.90;;;;;;4975508;28;20205;-79
2022/03/01 09:01:09;;;;;;;28.03;11.30;;;7.10;99.90;;;;;;4946650;28;20192;-78
2022/03/01 09:03:36;;;;;;;19.97;10.90;;;7.10;99.90;;;;;;4944746;28;20188;-79
2022/03/01 09:06:06;;;;;;;22.53;11.80;;;7.10;99.90;;;;;;4948046;28;20196;-79
2022/03/01 09:08:33;;;;;;;25.23;11.33;;;7.10;99.90;;;;;;4979551;28;20645;-77
2022/03/01 09:10:59;;;;;;;21.50;11.03;;;7.10;99.90;;;;;;4960198;28;20192;-79
2022/03/01 09:13:25;;;;;;;24.53;12.17;;;7.10;99.90;;;;;;4966832;28;20247;-79
2022/03/01 09:15:51;;;;;;;21.60;11.47;;;7.10;99.90;;;;;;4966635;28;20240;-78
2022/03/01 09:18:16;;;;;;;23.10;11.87;;;7.10;99.90;;;;;;4950253;28;20727;-78
2022/03/01 09:20:42;;;;;;;22.90;11.80;;;7.10;99.90;;;;;;4968221;28;20396;-79
2022/03/01 09:23:08;;;;;;;19.57;11.10;;;7.10;99.90;;;;;;4952889;28;20237;-79
2022/03/01 09:25:33;;;;;;;20.63;11.37;;;7.10;99.90;;;;;;4954006;28;20239;-78
2022/03/01 09:27:59;;;;;;;25.20;10.73;;;7.20;99.90;;;;;;4972181;28;20227;-79
2022/03/01 09:30:25;;;;;;;23.70;12.00;;;7.30;99.90;;;;;;4971685;28;20305;-79
2022/03/01 09:32:51;;;;;;;23.30;12.10;;;7.30;99.90;;;;;;4968718;28;20591;-78
2022/03/01 09:35:17;;;;;;;21.83;11.90;;;7.30;99.90;;;;;;4939486;28;20192;-78
2022/03/01 09:37:44;;;;;;;20.87;12.37;;;7.30;99.90;;;;;;4983857;28;20274;-80
2022/03/01 09:40:11;;;;;;;23.37;12.57;;;7.30;99.90;;;;;;4964090;28;20196;-79
2022/03/01 09:42:39;;;;;;;23.07;12.40;;;7.30;99.90;;;;;;4983089;28;20209;-79
2022/03/01 09:45:06;;;;;;;25.50;12.67;;;7.30;99.90;;;;;;4963390;28;20196;-78
2022/03/01 09:47:31;;;;;;;20.77;11.77;;;7.30;99.90;;;;;;4965378;28;20668;-78
2022/03/01 09:49:57;;;;;;;28.17;13.13;;;7.30;99.90;;;;;;4965666;28;20200;-79
2022/03/01 09:52:23;;;;;;;27.97;12.83;;;7.30;99.90;;;;;;4955470;28;20204;-79
2022/03/01 09:54:50;;;;;;;23.47;13.63;;;7.20;99.90;;;;;;4953525;28;20311;-77
2022/03/01 09:57:18;;;;;;;28.57;13.10;;;7.20;99.90;;;;;;4962865;28;20185;-79
2022/03/01 09:59:43;;;;;;;24.13;13.17;;;7.20;99.90;;;;;;4977196;28;20685;-79
2022/03/01 10:02:10;;;;;;;29.67;13.17;;;7.20;99.90;;;;;;4977675;28;20263;-79
2022/03/01 10:04:53;;;;;;;22.27;12.67;;;7.10;99.90;;;;;;4946099;28;20604;-78
2022/03/01 10:07:42;;;;;;;27.00;13.47;;;7.00;99.90;;;;;;4954941;28;20192;-78
2022/03/01 10:10:16;;;;;;;28.03;14.10;;;7.00;99.90;;;;;;4976970;28;20649;-79
2022/03/01 10:12:53;;;;;;;29.90;14.20;;;7.00;99.90;;;;;;4979668;28;20197;-78
2022/03/01 10:15:27;;;;;;;25.83;13.63;;;7.00;99.90;;;;;;4963242;28;20643;-78
2022/03/01 10:17:52;;;;;;;29.33;14.53;;;7.00;99.90;;;;;;4961304;28;20217;-79
2022/03/01 10:20:19;;;;;;;25.20;13.10;;;7.00;99.90;;;;;;4947211;28;20208;-78
2022/03/01 10:22:49;;;;;;;25.67;13.90;;;7.00;99.90;;;;;;4960877;28;20207;-78
2022/03/01 10:25:18;;;;;;;30.00;14.33;;;6.90;99.90;;;;;;4962154;28;20821;-79
2022/03/01 10:27:45;;;;;;;28.97;15.23;;;6.90;99.90;;;;;;4962101;28;20839;-79
2022/03/01 10:30:12;;;;;;;28.57;15.00;;;6.90;99.90;;;;;;4977579;28;20212;-78
2022/03/01 10:32:38;;;;;;;29.13;14.70;;;6.80;99.90;;;;;;4959736;28;20200;-79
2022/03/01 10:35:06;;;;;;;25.83;13.80;;;6.90;99.90;;;;;;4946692;28;20201;-79
2022/03/01 10:37:37;;;;;;;28.60;14.57;;;6.90;99.90;;;;;;4962237;28;20191;-79
2022/03/01 10:40:09;;;;;;;27.73;14.90;;;6.80;99.90;;;;;;4946253;28;20196;-78
2022/03/01 10:42:34;;;;;;;26.10;14.20;;;6.80;99.90;;;;;;4979251;28;20220;-79
2022/03/01 10:45:00;;;;;;;31.27;14.57;;;6.80;99.90;;;;;;4932915;28;20738;-79
2022/03/01 10:47:28;;;;;;;25.37;14.10;;;6.70;99.90;;;;;;4944753;28;20220;-78
2022/03/01 10:50:01;;;;;;;28.17;14.73;;;6.70;99.90;;;;;;4949320;28;21081;-78
2022/03/01 10:52:35;;;;;;;26.67;14.57;;;6.80;99.90;;;;;;4945083;28;20184;-79
2022/03/01 10:55:02;;;;;;;29.97;14.33;;;6.90;99.90;;;;;;4962432;28;20232;-79
2022/03/01 10:57:28;;;;;;;29.63;15.17;;;6.90;99.90;;;;;;4961564;28;20176;-79
2022/03/01 10:59:54;;;;;;;29.60;14.83;;;7.00;99.90;;;;;;4944513;28;20569;-77
2022/03/01 11:02:19;;;;;;;23.50;13.67;;;7.10;99.90;;;;;;4946739;28;20212;-78
2022/03/01 11:04:47;;;;;;;31.73;16.50;;;7.20;99.90;;;;;;4960424;28;20215;-77
2022/03/01 11:07:13;;;;;;;28.90;15.37;;;7.30;99.90;;;;;;4962784;28;20449;-79
2022/03/01 11:09:40;;;;;;;29.87;14.63;;;7.40;99.90;;;;;;4961848;28;20647;-79
2022/03/01 11:12:08;;;;;;;33.70;14.73;;;7.50;99.90;;;;;;4977747;28;20193;-79
2022/03/01 11:14:58;;;;;;;26.23;14.07;;;7.70;99.90;;;;;;4951408;28;20244;-78
2022/03/01 11:17:49;;;;;;;26.67;13.77;;;8.00;99.90;;;;;;4960987;28;20197;-78
2022/03/01 11:20:27;;;;;;;24.90;13.27;;;8.30;99.90;;;;;;4977848;28;20678;-78
2022/03/01 11:23:05;;;;;;;27.40;13.00;;;8.60;99.90;;;;;;4967805;28;20227;-79
2022/03/01 11:25:41;;;;;;;28.10;13.83;;;9.00;99.90;;;;;;4966042;28;20362;-79
2022/03/01 11:28:09;;;;;;;28.40;13.50;;;9.40;99.90;;;;;;4950980;28;20264;-78
2022/03/01 11:30:51;;;;;;;27.60;13.40;;;10.00;99.90;;;;;;4960602;28;20521;-79
2022/03/01 11:33:27;;;;;;;23.17;12.70;;;10.70;99.90;;;;;;4976498;28;20251;-79
2022/03/01 11:35:56;;;;;;;24.83;12.93;;;10.80;99.90;;;;;;4978658;28;21005;-78
2022/03/01 11:38:28;;;;;;;27.57;13.20;;;10.70;99.90;;;;;;4960308;28;20192;-78
2022/03/01 11:41:06;;;;;;;27.10;13.43;;;10.50;99.90;;;;;;4961922;28;20236;-80
2022/03/01 11:43:37;;;;;;;22.70;13.10;;;10.50;99.90;;;;;;4977937;28;20207;-79
2022/03/01 11:46:17;;;;;;;20.47;12.80;;;10.50;99.90;;;;;;4975579;28;20236;-77
2022/03/01 11:48:46;;;;;;;20.50;13.10;;;10.50;99.90;;;;;;4959496;28;20560;-80
2022/03/01 11:51:12;;;;;;;28.43;14.13;;;10.70;99.90;;;;;;4978302;28;20188;-78
2022/03/01 11:53:41;;;;;;;26.23;13.00;;;11.00;99.90;;;;;;4960897;28;20558;-79
2022/03/01 11:56:08;;;;;;;21.43;12.40;;;11.40;99.90;;;;;;4960843;28;20284;-78
2022/03/01 11:58:36;;;;;;;24.33;13.37;;;11.80;99.90;;;;;;4960531;28;20249;-79
2022/03/01 12:01:07;;;;;;;20.53;12.60;;;12.20;99.90;;;;;;4961025;28;20210;-79
2022/03/01 12:03:36;;;;;;;21.30;12.83;;;12.30;99.90;;;;;;4958907;28;20201;-79
2022/03/01 12:06:04;;;;;;;22.27;13.10;;;12.30;99.90;;;;;;4977818;28;20198;-77
2022/03/01 12:08:30;;;;;;;20.40;12.70;;;12.20;99.90;;;;;;4959721;28;20229;-79
2022/03/01 12:10:57;;;;;;;26.47;13.60;;;12.10;99.90;;;;;;4966612;28;20210;-79
2022/03/01 12:13:45;;;;;;;23.37;13.40;;;12.10;99.90;;;;;;4960252;28;20687;-79
2022/03/01 12:16:13;;;;;;;22.20;13.50;;;11.90;99.90;;;;;;4977311;28;20545;-79
2022/03/01 12:18:41;;;;;;;23.20;13.20;;;11.70;99.90;;;;;;4957859;28;20209;-78
2022/03/01 12:21:09;;;;;;;23.63;13.60;;;11.50;99.90;;;;;;4958727;28;20569;-78
2022/03/01 12:23:37;;;;;;;25.37;13.80;;;11.30;99.90;;;;;;4958509;28;20182;-77
2022/03/01 12:26:11;;;;;;;22.20;13.57;;;11.20;99.90;;;;;;4960106;28;20237;-79
2022/03/01 12:28:41;;;;;;;24.60;13.87;;;11.10;99.90;;;;;;4965675;28;20201;-79
2022/03/01 12:31:13;;;;;;;24.27;13.87;;;10.90;99.90;;;;;;4980629;28;20235;-78
2022/03/01 12:33:48;;;;;;;25.97;13.90;;;10.80;99.90;;;;;;4960935;28;20568;-79
2022/03/01 12:36:36;;;;;;;23.50;12.77;;;10.60;99.90;;;;;;4959033;28;20208;-79
2022/03/01 12:39:07;;;;;;;25.83;14.17;;;10.60;99.90;;;;;;4967166;28;20225;-78